Wetterdaten: Mittwoch, 10.08.2011
Datum Zeit Temp. A. Feuchte A. Luftdruck Regen Wind Richtung Richtung Sonnenschein UV Solar Windben
10.08.2011 00:00 13,2 C 80 % 1020,7 hPa 0,0 mm 4,8 km/h (1 Bft) W 270 0 min 0 UV-I 0 W/m 19,3 km/h (3 Bft)
10.08.2011 00:10 13,1 C 81 % 1020,8 hPa 0,0 mm 6,4 km/h (2 Bft) W 270 0 min 0 UV-I 0 W/m 22,5 km/h (4 Bft)
10.08.2011 00:20 12,9 C 82 % 1020,9 hPa 0,0 mm 6,4 km/h (2 Bft) W 270 0 min 0 UV-I 0 W/m 19,3 km/h (3 Bft)
10.08.2011 00:30 12,8 C 82 % 1021,0 hPa 0,0 mm 6,4 km/h (2 Bft) W 270 0 min 0 UV-I 0 W/m 17,7 km/h (3 Bft)
10.08.2011 00:40 12,7 C 82 % 1020,9 hPa 0,0 mm 4,8 km/h (1 Bft) W 270 0 min 0 UV-I 0 W/m 14,5 km/h (3 Bft)
10.08.2011 00:50 12,7 C 83 % 1021,1 hPa 0,0 mm 6,4 km/h (2 Bft) W-SW 247 0 min 0 UV-I 0 W/m 24,1 km/h (4 Bft)
10.08.2011 01:00 12,7 C 83 % 1021,2 hPa 0,0 mm 4,8 km/h (1 Bft) W 270 0 min 0 UV-I 0 W/m 11,3 km/h (2 Bft)
10.08.2011 01:10 12,7 C 83 % 1021,3 hPa 0,0 mm 4,8 km/h (1 Bft) W 270 0 min 0 UV-I 0 W/m 19,3 km/h (3 Bft)
10.08.2011 01:20 12,6 C 83 % 1021,3 hPa 0,0 mm 6,4 km/h (2 Bft) W 270 0 min 0 UV-I 0 W/m 17,7 km/h (3 Bft)
10.08.2011 01:30 12,5 C 83 % 1021,3 hPa 0,0 mm 6,4 km/h (2 Bft) W 270 0 min 0 UV-I 0 W/m 19,3 km/h (3 Bft)
10.08.2011 01:40 12,4 C 83 % 1021,4 hPa 0,0 mm 4,8 km/h (1 Bft) W 270 0 min 0 UV-I 0 W/m 16,1 km/h (3 Bft)
10.08.2011 01:50 12,5 C 83 % 1021,3 hPa 0,0 mm 3,2 km/h (1 Bft) W 270 0 min 0 UV-I 0 W/m 14,5 km/h (3 Bft)
10.08.2011 02:00 12,6 C 82 % 1021,2 hPa 0,0 mm 4,8 km/h (1 Bft) W 270 0 min 0 UV-I 0 W/m 14,5 km/h (3 Bft)
10.08.2011 02:10 12,6 C 82 % 1021,4 hPa 0,0 mm 4,8 km/h (1 Bft) W 270 0 min 0 UV-I 0 W/m 17,7 km/h (3 Bft)
10.08.2011 02:20 12,6 C 82 % 1021,5 hPa 0,0 mm 4,8 km/h (1 Bft) W-SW 247 0 min 0 UV-I 0 W/m 17,7 km/h (3 Bft)
10.08.2011 02:30 12,6 C 82 % 1021,6 hPa 0,0 mm 4,8 km/h (1 Bft) W 270 0 min 0 UV-I 0 W/m 16,1 km/h (3 Bft)
10.08.2011 02:40 12,6 C 83 % 1021,6 hPa 0,0 mm 4,8 km/h (1 Bft) W 270 0 min 0 UV-I 0 W/m 16,1 km/h (3 Bft)
10.08.2011 02:50 12,4 C 83 % 1021,6 hPa 0,0 mm 6,4 km/h (2 Bft) W 270 0 min 0 UV-I 0 W/m 17,7 km/h (3 Bft)
10.08.2011 03:00 12,2 C 84 % 1021,7 hPa 0,0 mm 6,4 km/h (2 Bft) W 270 0 min 0 UV-I 0 W/m 16,1 km/h (3 Bft)
10.08.2011 03:10 11,9 C 85 % 1021,7 hPa 0,0 mm 6,4 km/h (2 Bft) W 270 0 min 0 UV-I 0 W/m 19,3 km/h (3 Bft)
10.08.2011 03:20 11,8 C 85 % 1021,7 hPa 0,0 mm 6,4 km/h (2 Bft) W-SW 247 0 min 0 UV-I 0 W/m 17,7 km/h (3 Bft)
10.08.2011 03:30 11,7 C 86 % 1021,8 hPa 0,0 mm 4,8 km/h (1 Bft) SW 225 0 min 0 UV-I 0 W/m 17,7 km/h (3 Bft)
10.08.2011 03:40 11,6 C 86 % 1021,8 hPa 0,0 mm 4,8 km/h (1 Bft) W 270 0 min 0 UV-I 0 W/m 19,3 km/h (3 Bft)
10.08.2011 03:50 11,6 C 86 % 1021,8 hPa 0,0 mm 8,0 km/h (2 Bft) W-SW 247 0 min 0 UV-I 0 W/m 20,9 km/h (4 Bft)
10.08.2011 04:00 11,7 C 86 % 1021,7 hPa 0,0 mm 4,8 km/h (1 Bft) W 270 0 min 0 UV-I 0 W/m 20,9 km/h (4 Bft)
10.08.2011 04:10 11,7 C 86 % 1021,8 hPa 0,0 mm 6,4 km/h (2 Bft) W-SW 247 0 min 0 UV-I 0 W/m 17,7 km/h (3 Bft)
10.08.2011 04:20 11,8 C 86 % 1021,9 hPa 0,0 mm 6,4 km/h (2 Bft) W 270 0 min 0 UV-I 0 W/m 17,7 km/h (3 Bft)
10.08.2011 04:30 11,9 C 85 % 1021,9 hPa 0,0 mm 8,0 km/h (2 Bft) W-SW 247 0 min 0 UV-I 0 W/m 17,7 km/h (3 Bft)
10.08.2011 04:40 11,9 C 85 % 1022,1 hPa 0,0 mm 6,4 km/h (2 Bft) W-SW 247 0 min 0 UV-I 0 W/m 19,3 km/h (3 Bft)
10.08.2011 04:50 11,9 C 85 % 1022,1 hPa 0,0 mm 6,4 km/h (2 Bft) W 270 0 min 0 UV-I 0 W/m 16,1 km/h (3 Bft)
10.08.2011 05:00 11,9 C 85 % 1022,0 hPa 0,0 mm 4,8 km/h (1 Bft) W 270 0 min 0 UV-I 0 W/m 19,3 km/h (3 Bft)
10.08.2011 05:10 11,9 C 85 % 1022,2 hPa 0,0 mm 4,8 km/h (1 Bft) W 270 0 min 0 UV-I 0 W/m 16,1 km/h (3 Bft)
10.08.2011 05:20 11,9 C 85 % 1022,4 hPa 0,0 mm 4,8 km/h (1 Bft) W 270 0 min 0 UV-I 0 W/m 19,3 km/h (3 Bft)
10.08.2011 05:30 11,8 C 85 % 1022,5 hPa 0,0 mm 6,4 km/h (2 Bft) W 270 0 min 0 UV-I 0 W/m 19,3 km/h (3 Bft)
10.08.2011 05:40 11,8 C 85 % 1022,5 hPa 0,0 mm 4,8 km/h (1 Bft) W-SW 247 0 min 0 UV-I 0 W/m 16,1 km/h (3 Bft)
10.08.2011 05:50 11,7 C 85 % 1022,5 hPa 0,0 mm 6,4 km/h (2 Bft) W 270 0 min 0 UV-I 0 W/m 17,7 km/h (3 Bft)
10.08.2011 06:00 11,7 C 86 % 1022,8 hPa 0,0 mm 4,8 km/h (1 Bft) W 270 0 min 0 UV-I 0 W/m 17,7 km/h (3 Bft)
10.08.2011 06:10 11,7 C 86 % 1023,0 hPa 0,0 mm 4,8 km/h (1 Bft) W 270 0 min 0 UV-I 0 W/m 16,1 km/h (3 Bft)
10.08.2011 06:20 11,6 C 86 % 1022,8 hPa 0,0 mm 6,4 km/h (2 Bft) W 270 0 min 0 UV-I 7 W/m 16,1 km/h (3 Bft)
10.08.2011 06:30 11,6 C 86 % 1022,9 hPa 0,0 mm 4,8 km/h (1 Bft) W 270 0 min 0 UV-I 7 W/m 16,1 km/h (3 Bft)
10.08.2011 06:40 11,6 C 86 % 1023,0 hPa 0,0 mm 3,2 km/h (1 Bft) W 270 0 min 0 UV-I 19 W/m 14,5 km/h (3 Bft)
10.08.2011 06:50 11,6 C 86 % 1023,1 hPa 0,0 mm 3,2 km/h (1 Bft) W-NW 292 0 min 0 UV-I 26 W/m 9,7 km/h (2 Bft)
10.08.2011 07:00 11,5 C 86 % 1023,1 hPa 0,0 mm 4,8 km/h (1 Bft) W 270 0 min 0 UV-I 39 W/m 11,3 km/h (2 Bft)
10.08.2011 07:10 11,6 C 86 % 1023,3 hPa 0,0 mm 3,2 km/h (1 Bft) W-SW 247 0 min 0 UV-I 53 W/m 9,7 km/h (2 Bft)
10.08.2011 07:20 11,6 C 86 % 1023,2 hPa 0,0 mm 3,2 km/h (1 Bft) W 270 0 min 0 UV-I 53 W/m 16,1 km/h (3 Bft)
10.08.2011 07:30 11,6 C 86 % 1023,3 hPa 0,0 mm 4,8 km/h (1 Bft) W 270 0 min 0 UV-I 72 W/m 14,5 km/h (3 Bft)
10.08.2011 07:40 11,6 C 86 % 1023,5 hPa 0,0 mm 4,8 km/h (1 Bft) W 270 0 min 1 UV-I 79 W/m 16,1 km/h (3 Bft)
10.08.2011 07:50 11,7 C 86 % 1023,7 hPa 0,0 mm 4,8 km/h (1 Bft) W 270 0 min 1 UV-I 93 W/m 17,7 km/h (3 Bft)
10.08.2011 08:00 11,9 C 86 % 1023,7 hPa 0,0 mm 3,5 km/h (1 Bft) W 281 0 min 1 UV-I 98 W/m 11,3 km/h (2 Bft)
10.08.2011 08:10 11,9 C 86 % 1023,7 hPa 0,0 mm 3,2 km/h (1 Bft) W-SW 247 0 min 1 UV-I 111 W/m 9,7 km/h (2 Bft)
10.08.2011 08:20 12,1 C 86 % 1023,7 hPa 0,0 mm 3,2 km/h (1 Bft) W 270 0 min 1 UV-I 156 W/m 11,3 km/h (2 Bft)
10.08.2011 08:30 12,3 C 85 % 1023,7 hPa 0,0 mm 4,8 km/h (1 Bft) W 270 0 min 1 UV-I 163 W/m 14,5 km/h (3 Bft)
10.08.2011 08:40 12,4 C 84 % 1023,7 hPa 0,0 mm 4,8 km/h (1 Bft) W 270 0 min 1 UV-I 90 W/m 16,1 km/h (3 Bft)
10.08.2011 08:50 12,4 C 84 % 1023,9 hPa 0,0 mm 4,8 km/h (1 Bft) W 270 10 min 2 UV-I 257 W/m 16,1 km/h (3 Bft)
10.08.2011 09:00 12,7 C 83 % 1023,9 hPa 0,0 mm 6,4 km/h (2 Bft) W 270 0 min 1 UV-I 216 W/m 17,7 km/h (3 Bft)
10.08.2011 09:10 12,9 C 81 % 1024,0 hPa 0,0 mm 8,0 km/h (2 Bft) W 270 10 min 2 UV-I 464 W/m 22,5 km/h (4 Bft)
10.08.2011 09:20 12,9 C 82 % 1023,8 hPa 0,0 mm 6,4 km/h (2 Bft) W-SW 247 10 min 2 UV-I 306 W/m 14,5 km/h (3 Bft)
10.08.2011 09:30 13,3 C 80 % 1023,7 hPa 0,0 mm 4,8 km/h (1 Bft) W-SW 247 10 min 2 UV-I 522 W/m 17,7 km/h (3 Bft)
10.08.2011 09:40 13,7 C 78 % 1023,7 hPa 0,0 mm 4,8 km/h (1 Bft) W 270 0 min 3 UV-I 274 W/m 19,3 km/h (3 Bft)
10.08.2011 09:50 13,7 C 77 % 1023,6 hPa 0,0 mm 6,4 km/h (2 Bft) W 270 10 min 3 UV-I 587 W/m 16,1 km/h (3 Bft)
10.08.2011 10:00 14,1 C 75 % 1023,6 hPa 0,0 mm 3,2 km/h (1 Bft) W-NW 292 10 min 3 UV-I 587 W/m 12,9 km/h (3 Bft)
10.08.2011 10:10 14,6 C 73 % 1023,5 hPa 0,0 mm 4,8 km/h (1 Bft) W-NW 292 10 min 3 UV-I 691 W/m 17,7 km/h (3 Bft)
10.08.2011 10:20 14,9 C 69 % 1023,4 hPa 0,0 mm 4,8 km/h (1 Bft) W 270 10 min 3 UV-I 729 W/m 16,1 km/h (3 Bft)
10.08.2011 10:30 14,8 C 69 % 1023,4 hPa 0,0 mm 4,8 km/h (1 Bft) W-SW 247 10 min 4 UV-I 731 W/m 16,1 km/h (3 Bft)
10.08.2011 10:40 15,1 C 67 % 1023,3 hPa 0,0 mm 6,4 km/h (2 Bft) W 270 10 min 4 UV-I 775 W/m 16,1 km/h (3 Bft)
10.08.2011 10:50 15,1 C 69 % 1023,3 hPa 0,0 mm 4,8 km/h (1 Bft) W 270 0 min 4 UV-I 311 W/m 17,7 km/h (3 Bft)
10.08.2011 11:00 15,1 C 67 % 1023,3 hPa 0,0 mm 6,4 km/h (2 Bft) W 270 10 min 5 UV-I 399 W/m 24,1 km/h (4 Bft)
10.08.2011 11:10 15,2 C 64 % 1023,3 hPa 0,0 mm 4,8 km/h (1 Bft) W 270 0 min 3 UV-I 345 W/m 17,7 km/h (3 Bft)
10.08.2011 11:20 15,2 C 66 % 1023,4 hPa 0,0 mm 6,4 km/h (2 Bft) W 270 0 min 5 UV-I 315 W/m 20,9 km/h (4 Bft)
10.08.2011 11:30 15,3 C 66 % 1023,3 hPa 0,0 mm 6,4 km/h (2 Bft) W 270 0 min 3 UV-I 292 W/m 17,7 km/h (3 Bft)
10.08.2011 11:40 15,7 C 65 % 1023,2 hPa 0,0 mm 6,4 km/h (2 Bft) W 270 10 min 6 UV-I 875 W/m 20,9 km/h (4 Bft)
10.08.2011 11:50 16,2 C 61 % 1023,1 hPa 0,0 mm 8,0 km/h (2 Bft) W 270 10 min 6 UV-I 714 W/m 22,5 km/h (4 Bft)
10.08.2011 12:00 16,0 C 63 % 1023,1 hPa 0,0 mm 4,8 km/h (1 Bft) W 270 0 min 4 UV-I 322 W/m 17,7 km/h (3 Bft)
10.08.2011 12:10 15,7 C 66 % 1023,0 hPa 0,0 mm 8,0 km/h (2 Bft) W 270 10 min 6 UV-I 777 W/m 19,3 km/h (3 Bft)
10.08.2011 12:20 16,5 C 61 % 1022,9 hPa 0,0 mm 6,4 km/h (2 Bft) W 270 10 min 6 UV-I 601 W/m 22,5 km/h (4 Bft)
10.08.2011 12:30 17,0 C 60 % 1022,7 hPa 0,0 mm 6,4 km/h (2 Bft) W 270 10 min 7 UV-I 921 W/m 19,3 km/h (3 Bft)
10.08.2011 12:40 17,0 C 60 % 1022,7 hPa 0,0 mm 6,4 km/h (2 Bft) W 270 10 min 5 UV-I 775 W/m 19,3 km/h (3 Bft)
10.08.2011 12:50 16,8 C 61 % 1022,6 hPa 0,0 mm 8,0 km/h (2 Bft) W 270 10 min 7 UV-I 882 W/m 20,9 km/h (4 Bft)
10.08.2011 13:00 17,4 C 58 % 1022,5 hPa 0,0 mm 8,0 km/h (2 Bft) W-SW 247 10 min 7 UV-I 925 W/m 22,5 km/h (4 Bft)
10.08.2011 13:10 17,5 C 59 % 1022,3 hPa 0,0 mm 6,4 km/h (2 Bft) W 270 10 min 6 UV-I 846 W/m 17,7 km/h (3 Bft)
10.08.2011 13:20 17,6 C 58 % 1022,1 hPa 0,0 mm 6,4 km/h (2 Bft) S-SW 202 10 min 6 UV-I 925 W/m 20,9 km/h (4 Bft)
10.08.2011 13:30 18,3 C 55 % 1022,0 hPa 0,0 mm 8,0 km/h (2 Bft) W 270 10 min 7 UV-I 962 W/m 22,5 km/h (4 Bft)
10.08.2011 13:40 18,0 C 56 % 1022,0 hPa 0,0 mm 6,4 km/h (2 Bft) W-SW 247 10 min 6 UV-I 606 W/m 17,7 km/h (3 Bft)
10.08.2011 13:50 17,7 C 57 % 1021,8 hPa 0,0 mm 6,4 km/h (2 Bft) W 270 10 min 7 UV-I 1018 W/m 17,7 km/h (3 Bft)
10.08.2011 14:00 18,4 C 53 % 1021,9 hPa 0,0 mm 8,0 km/h (2 Bft) W-SW 247 10 min 6 UV-I 884 W/m 20,9 km/h (4 Bft)
10.08.2011 14:10 18,4 C 54 % 1021,7 hPa 0,0 mm 9,7 km/h (2 Bft) W 270 10 min 6 UV-I 788 W/m 24,1 km/h (4 Bft)
10.08.2011 14:20 18,3 C 54 % 1021,6 hPa 0,0 mm 6,4 km/h (2 Bft) W-SW 247 10 min 5 UV-I 691 W/m 22,5 km/h (4 Bft)
10.08.2011 14:30 18,4 C 55 % 1021,4 hPa 0,0 mm 4,8 km/h (1 Bft) W 270 10 min 5 UV-I 758 W/m 20,9 km/h (4 Bft)
10.08.2011 14:40 18,1 C 54 % 1021,2 hPa 0,0 mm 6,4 km/h (2 Bft) W 270 10 min 5 UV-I 684 W/m 19,3 km/h (3 Bft)
10.08.2011 14:50 18,8 C 53 % 1020,9 hPa 0,0 mm 6,4 km/h (2 Bft) W 270 10 min 6 UV-I 891 W/m 17,7 km/h (3 Bft)
10.08.2011 15:00 19,3 C 51 % 1020,9 hPa 0,0 mm 9,7 km/h (2 Bft) W 270 10 min 5 UV-I 802 W/m 20,9 km/h (4 Bft)
10.08.2011 15:10 19,1 C 51 % 1020,8 hPa 0,0 mm 8,0 km/h (2 Bft) W-SW 247 10 min 5 UV-I 670 W/m 19,3 km/h (3 Bft)
10.08.2011 15:20 18,8 C 52 % 1020,7 hPa 0,0 mm 6,4 km/h (2 Bft) W 270 10 min 5 UV-I 802 W/m 19,3 km/h (3 Bft)
10.08.2011 15:30 19,3 C 52 % 1020,5 hPa 0,0 mm 8,0 km/h (2 Bft) W 270 10 min 5 UV-I 710 W/m 19,3 km/h (3 Bft)
10.08.2011 15:40 19,5 C 52 % 1020,5 hPa 0,0 mm 8,0 km/h (2 Bft) W 270 10 min 5 UV-I 972 W/m 24,1 km/h (4 Bft)
10.08.2011 15:50 19,8 C 51 % 1020,0 hPa 0,0 mm 8,0 km/h (2 Bft) W 270 10 min 4 UV-I 568 W/m 20,9 km/h (4 Bft)
10.08.2011 16:00 19,7 C 51 % 1019,8 hPa 0,0 mm 8,3 km/h (2 Bft) W-SW 242 0 min 3 UV-I 336 W/m 20,9 km/h (4 Bft)
10.08.2011 16:10 19,7 C 51 % 1019,8 hPa 0,0 mm 6,4 km/h (2 Bft) W 270 10 min 4 UV-I 497 W/m 19,3 km/h (3 Bft)
10.08.2011 16:20 19,4 C 52 % 1019,8 hPa 0,0 mm 6,4 km/h (2 Bft) W-SW 247 0 min 2 UV-I 288 W/m 19,3 km/h (3 Bft)
10.08.2011 16:30 19,2 C 52 % 1019,7 hPa 0,0 mm 6,4 km/h (2 Bft) W-SW 247 0 min 2 UV-I 246 W/m 20,9 km/h (4 Bft)
10.08.2011 16:40 19,2 C 53 % 1019,6 hPa 0,0 mm 6,4 km/h (2 Bft) W-SW 247 0 min 2 UV-I 269 W/m 20,9 km/h (4 Bft)
10.08.2011 16:50 19,1 C 52 % 1019,5 hPa 0,0 mm 8,0 km/h (2 Bft) W 270 0 min 2 UV-I 216 W/m 20,9 km/h (4 Bft)
10.08.2011 17:00 18,9 C 53 % 1019,4 hPa 0,0 mm 6,4 km/h (2 Bft) W 270 0 min 2 UV-I 193 W/m 17,7 km/h (3 Bft)
10.08.2011 17:10 18,9 C 54 % 1019,3 hPa 0,0 mm 4,8 km/h (1 Bft) W-SW 247 0 min 1 UV-I 185 W/m 16,1 km/h (3 Bft)
10.08.2011 17:20 19,0 C 54 % 1019,1 hPa 0,0 mm 4,8 km/h (1 Bft) W 270 0 min 1 UV-I 132 W/m 19,3 km/h (3 Bft)
10.08.2011 17:30 18,7 C 54 % 1019,0 hPa 0,0 mm 4,8 km/h (1 Bft) W 270 0 min 1 UV-I 90 W/m 12,9 km/h (3 Bft)
10.08.2011 17:40 18,7 C 55 % 1018,9 hPa 0,0 mm 4,8 km/h (1 Bft) W-SW 247 0 min 1 UV-I 160 W/m 17,7 km/h (3 Bft)
10.08.2011 17:50 18,8 C 55 % 1018,7 hPa 0,0 mm 4,8 km/h (1 Bft) SW 225 0 min 1 UV-I 84 W/m 19,3 km/h (3 Bft)
10.08.2011 18:00 18,7 C 56 % 1018,5 hPa 0,0 mm 3,2 km/h (1 Bft) W-SW 247 0 min 1 UV-I 91 W/m 14,5 km/h (3 Bft)
10.08.2011 18:10 18,6 C 58 % 1018,3 hPa 0,0 mm 3,2 km/h (1 Bft) W-SW 247 0 min 1 UV-I 104 W/m 20,9 km/h (4 Bft)
10.08.2011 18:20 18,4 C 59 % 1018,2 hPa 0,0 mm 3,2 km/h (1 Bft) S-SW 202 0 min 1 UV-I 98 W/m 11,3 km/h (2 Bft)
10.08.2011 18:30 18,2 C 61 % 1018,1 hPa 0,0 mm 3,2 km/h (1 Bft) SW 225 0 min 1 UV-I 98 W/m 14,5 km/h (3 Bft)
10.08.2011 18:40 18,1 C 61 % 1017,9 hPa 0,0 mm 3,2 km/h (1 Bft) S-SW 202 0 min 1 UV-I 67 W/m 14,5 km/h (3 Bft)
10.08.2011 18:50 18,1 C 61 % 1017,8 hPa 0,0 mm 3,2 km/h (1 Bft) SW 225 0 min 1 UV-I 116 W/m 16,1 km/h (3 Bft)
10.08.2011 19:00 18,3 C 61 % 1017,7 hPa 0,0 mm 1,6 km/h (1 Bft) S-SW 202 0 min 1 UV-I 79 W/m 9,7 km/h (2 Bft)
10.08.2011 19:10 18,3 C 61 % 1017,4 hPa 0,0 mm 3,2 km/h (1 Bft) S-SW 202 0 min 0 UV-I 54 W/m 9,7 km/h (2 Bft)
10.08.2011 19:20 18,3 C 61 % 1017,1 hPa 0,0 mm 1,6 km/h (1 Bft) S-SW 202 0 min 0 UV-I 76 W/m 9,7 km/h (2 Bft)
10.08.2011 19:30 18,5 C 60 % 1017,1 hPa 0,0 mm 1,6 km/h (1 Bft) S-SW 202 0 min 0 UV-I 56 W/m 11,3 km/h (2 Bft)
10.08.2011 19:40 18,4 C 61 % 1016,9 hPa 0,0 mm 1,6 km/h (1 Bft) S-SW 202 0 min 0 UV-I 33 W/m 9,7 km/h (2 Bft)
10.08.2011 19:50 18,3 C 62 % 1016,7 hPa 0,0 mm 1,6 km/h (1 Bft) S-SW 202 0 min 0 UV-I 37 W/m 8,0 km/h (2 Bft)
10.08.2011 20:00 18,2 C 62 % 1016,7 hPa 0,0 mm 1,6 km/h (1 Bft) S-SW 202 0 min 0 UV-I 39 W/m 6,4 km/h (2 Bft)
10.08.2011 20:10 18,2 C 61 % 1016,5 hPa 0,0 mm 1,6 km/h (1 Bft) SW 225 0 min 0 UV-I 21 W/m 8,0 km/h (2 Bft)
10.08.2011 20:20 18,2 C 61 % 1016,5 hPa 0,0 mm 1,6 km/h (1 Bft) SW 225 0 min 0 UV-I 12 W/m 9,7 km/h (2 Bft)
10.08.2011 20:30 18,1 C 61 % 1016,5 hPa 0,0 mm 1,6 km/h (1 Bft) SW 225 0 min 0 UV-I 12 W/m 9,7 km/h (2 Bft)
10.08.2011 20:40 18,2 C 60 % 1016,7 hPa 0,0 mm 3,2 km/h (1 Bft) SW 225 0 min 0 UV-I 0 W/m 16,1 km/h (3 Bft)
10.08.2011 20:50 18,2 C 58 % 1016,5 hPa 0,0 mm 4,8 km/h (1 Bft) W-SW 247 0 min 0 UV-I 0 W/m 20,9 km/h (4 Bft)
10.08.2011 21:00 18,3 C 56 % 1016,5 hPa 0,0 mm 8,0 km/h (2 Bft) W-SW 247 0 min 0 UV-I 0 W/m 25,7 km/h (4 Bft)
10.08.2011 21:10 18,5 C 55 % 1016,5 hPa 0,0 mm 9,7 km/h (2 Bft) W 270 0 min 0 UV-I 0 W/m 20,9 km/h (4 Bft)
10.08.2011 21:20 18,6 C 56 % 1016,5 hPa 0,0 mm 14,5 km/h (3 Bft) W 270 0 min 0 UV-I 0 W/m 43,5 km/h (6 Bft)
10.08.2011 21:30 18,4 C 58 % 1016,3 hPa 0,0 mm 9,7 km/h (2 Bft) W 270 0 min 0 UV-I 0 W/m 27,4 km/h (4 Bft)
10.08.2011 21:40 18,3 C 57 % 1016,1 hPa 0,0 mm 8,0 km/h (2 Bft) W 270 0 min 0 UV-I 0 W/m 20,9 km/h (4 Bft)
10.08.2011 21:50 18,4 C 56 % 1015,9 hPa 0,0 mm 6,4 km/h (2 Bft) W-SW 247 0 min 0 UV-I 0 W/m 20,9 km/h (4 Bft)
10.08.2011 22:00 18,4 C 56 % 1015,8 hPa 0,0 mm 3,2 km/h (1 Bft) S-SW 202 0 min 0 UV-I 0 W/m 14,5 km/h (3 Bft)
10.08.2011 22:10 18,4 C 56 % 1015,8 hPa 0,0 mm 4,8 km/h (1 Bft) S-SW 202 0 min 0 UV-I 0 W/m 17,7 km/h (3 Bft)
10.08.2011 22:20 18,3 C 57 % 1015,9 hPa 0,0 mm 3,2 km/h (1 Bft) S-SW 202 0 min 0 UV-I 0 W/m 11,3 km/h (2 Bft)
10.08.2011 22:30 18,2 C 58 % 1015,8 hPa 0,0 mm 1,6 km/h (1 Bft) W-SW 247 0 min 0 UV-I 0 W/m 9,7 km/h (2 Bft)
10.08.2011 22:40 18,1 C 58 % 1015,7 hPa 0,0 mm 3,2 km/h (1 Bft) SW 225 0 min 0 UV-I 0 W/m 8,0 km/h (2 Bft)
10.08.2011 22:50 18,0 C 58 % 1015,9 hPa 0,0 mm 3,2 km/h (1 Bft) SW 225 0 min 0 UV-I 0 W/m 9,7 km/h (2 Bft)
10.08.2011 23:00 17,9 C 59 % 1015,9 hPa 0,0 mm 3,2 km/h (1 Bft) W-SW 247 0 min 0 UV-I 0 W/m 14,5 km/h (3 Bft)
10.08.2011 23:10 17,9 C 59 % 1015,7 hPa 0,0 mm 1,6 km/h (1 Bft) W-SW 247 0 min 0 UV-I 0 W/m 8,0 km/h (2 Bft)
10.08.2011 23:20 17,8 C 59 % 1015,6 hPa 0,0 mm 1,6 km/h (1 Bft) W-SW 247 0 min 0 UV-I 0 W/m 11,3 km/h (2 Bft)
10.08.2011 23:30 17,8 C 60 % 1015,4 hPa 0,0 mm 1,6 km/h (1 Bft) W 270 0 min 0 UV-I 0 W/m 8,0 km/h (2 Bft)
10.08.2011 23:40 17,8 C 60 % 1015,3 hPa 0,0 mm 1,6 km/h (1 Bft) S-SW 202 0 min 0 UV-I 0 W/m 11,3 km/h (2 Bft)
10.08.2011 23:50 17,8 C 60 % 1015,2 hPa 0,0 mm 3,2 km/h (1 Bft) S-SW 202 0 min 0 UV-I 0 W/m 9,7 km/h (2 Bft)
_ Min-Zeit 06:30 15:00 23:50 - 19:00 - - - - - 20:00
Minimum _ 11,5 C 51 % 1015,2 hPa - 1,6 km/h (1 Bft) - - - - - 6,4 km/h (2 Bft)
_ Max-Zeit 16:00 03:30 09:10 00:00 21:20 - - 08:50 13:30 13:50 21:20
Maximum _ 19,9 C 86 % 1024,0 hPa 0,0 mm 14,5 km/h
W (3 Bft)
- - 10 min 7 UV-I 1018 W/m 43,5 km/h
W-SW (6 Bft)
Durchschnitt _ 15,5 C 69 % 1020,6 hPa #0,0 mm 5,3 km/h (1 Bft) W - #6:10 h 3 UV-I 383 W/m 17,0 km/h (3 Bft)